Time;durP1;ratioP1;P1;durP2;ratioP2;P2;SDS_P1;SDS_P2;PMS_P1;PMS_P2;Temp;Humidity;BMP_temperature;BMP_pressure;BME280_temperature;BME280_humidity;BME280_pressure;Samples;Min_cycle;Max_cycle;Signal;HPM_P1;HPM_P2
2021/12/07 00:01:54;;;;;;;25.73;18.38;;;2.80;99.90;;;;;;4999687;28;20054;-82
2021/12/07 00:04:20;;;;;;;25.42;17.27;;;2.80;99.90;;;;;;5000010;28;20038;-81
2021/12/07 00:06:46;;;;;;;25.67;17.98;;;2.80;99.90;;;;;;4999959;28;20493;-81
2021/12/07 00:09:16;;;;;;;25.75;16.73;;;2.80;99.90;;;;;;4999821;28;20444;-81
2021/12/07 00:11:43;;;;;;;23.20;16.30;;;2.70;99.90;;;;;;4986534;28;20564;-81
2021/12/07 00:14:14;;;;;;;27.35;18.02;;;2.70;99.90;;;;;;4999700;28;20044;-81
2021/12/07 00:16:42;;;;;;;25.17;16.77;;;2.60;99.90;;;;;;4994209;28;20042;-81
2021/12/07 00:19:08;;;;;;;27.45;17.98;;;2.50;99.90;;;;;;4980054;28;20129;-81
2021/12/07 00:21:34;;;;;;;28.33;19.15;;;2.50;99.90;;;;;;4999590;28;20038;-81
2021/12/07 00:24:00;;;;;;;27.50;18.42;;;2.70;99.90;;;;;;4982473;28;20100;-81
2021/12/07 00:26:26;;;;;;;27.45;18.63;;;2.40;99.90;;;;;;4999024;28;20113;-81
2021/12/07 00:28:52;;;;;;;26.42;17.75;;;2.40;99.90;;;;;;4982972;28;20093;-81
2021/12/07 00:31:29;;;;;;;25.00;17.92;;;2.60;99.90;;;;;;4982943;28;20042;-81
2021/12/07 00:36:37;;;;;;;27.75;18.25;;;2.20;99.90;;;;;;4998741;28;20493;-81
2021/12/07 00:39:07;;;;;;;25.75;17.80;;;2.10;99.90;;;;;;4989413;28;20485;-81
2021/12/07 00:41:34;;;;;;;25.88;18.35;;;2.10;99.90;;;;;;4988643;28;20512;-81
2021/12/07 00:44:02;;;;;;;25.48;17.80;;;2.00;99.90;;;;;;4979793;28;20064;-81
2021/12/07 00:46:28;;;;;;;26.48;18.30;;;1.90;99.90;;;;;;4983838;28;20494;-81
2021/12/07 00:48:54;;;;;;;28.75;18.42;;;1.90;99.90;;;;;;4998395;28;20034;-81
2021/12/07 00:51:20;;;;;;;28.35;19.25;;;2.40;99.90;;;;;;4998631;28;20070;-81
2021/12/07 00:53:46;;;;;;;29.50;19.67;;;1.90;99.90;;;;;;4982044;28;20125;-81
2021/12/07 00:56:12;;;;;;;27.52;18.73;;;1.70;99.90;;;;;;4979765;28;20102;-81
2021/12/07 00:58:37;;;;;;;29.92;19.90;;;1.90;99.90;;;;;;4990173;28;20034;-82
2021/12/07 01:01:10;;;;;;;33.45;21.58;;;1.60;99.90;;;;;;4998295;28;20453;-82
2021/12/07 01:03:36;;;;;;;;;;;1.60;99.90;;;;;;4999385;28;20089;-82
2021/12/07 01:06:30;;;;;;;27.67;18.85;;;1.50;99.90;;;;;;4982616;28;19918;-82
2021/12/07 01:09:19;;;;;;;27.00;18.42;;;1.50;99.90;;;;;;5007808;28;20038;-82
2021/12/07 01:25:39;;;;;;;26.98;17.80;;;1.50;99.90;;;;;;4984972;28;20485;-82
2021/12/07 01:28:21;;;;;;;27.67;18.23;;;1.60;99.90;;;;;;4998359;28;20409;-82
2021/12/07 01:30:56;;;;;;;27.47;17.60;;;1.60;99.90;;;;;;5008557;28;20041;-82
2021/12/07 01:33:38;;;;;;;25.27;17.70;;;1.50;99.90;;;;;;4971843;28;20776;-82
2021/12/07 01:42:54;;;;;;;23.83;15.90;;;1.60;99.90;;;;;;4988661;28;20409;-82
2021/12/07 01:47:25;;;;;;;27.33;18.42;;;1.50;99.90;;;;;;5001298;28;20104;-83
2021/12/07 02:00:50;;;;;;;27.25;17.85;;;1.40;99.90;;;;;;4999414;28;20505;-83
2021/12/07 02:03:17;;;;;;;28.17;17.65;;;1.30;99.90;;;;;;4985582;28;20508;-83
2021/12/07 02:05:43;;;;;;;31.38;19.83;;;1.30;99.90;;;;;;5009472;28;20409;-83
2021/12/07 02:08:09;;;;;;;38.00;20.73;;;1.30;99.90;;;;;;4991147;28;20077;-83
2021/12/07 02:10:36;;;;;;;27.90;17.92;;;1.30;99.90;;;;;;4982022;28;20038;-83
2021/12/07 02:13:06;;;;;;;30.02;19.38;;;1.30;99.90;;;;;;4976031;28;20513;-83
2021/12/07 02:15:33;;;;;;;34.33;20.50;;;1.30;99.90;;;;;;4985361;28;20034;-83
2021/12/07 02:18:00;;;;;;;32.75;19.77;;;1.90;99.90;;;;;;4977699;28;20551;-83
2021/12/07 02:20:29;;;;;;;33.35;20.50;;;1.30;99.90;;;;;;4989057;28;20122;-83
2021/12/07 02:22:55;;;;;;;32.65;19.98;;;1.30;99.90;;;;;;4982896;28;20117;-83
2021/12/07 02:25:20;;;;;;;29.30;19.58;;;1.20;99.90;;;;;;4983612;28;20089;-83
2021/12/07 02:27:48;;;;;;;42.95;22.67;;;1.30;99.90;;;;;;4982534;28;20053;-83
2021/12/07 02:30:19;;;;;;;31.33;19.58;;;1.30;99.90;;;;;;4965810;28;20035;-83
2021/12/07 02:32:46;;;;;;;36.28;21.08;;;1.20;99.90;;;;;;4997777;28;20042;-83
2021/12/07 02:35:15;;;;;;;33.38;21.10;;;1.30;99.90;;;;;;4997504;28;20038;-83
2021/12/07 02:37:41;;;;;;;35.80;21.63;;;1.30;99.90;;;;;;4997131;28;20048;-83
2021/12/07 02:40:08;;;;;;;42.20;22.98;;;1.30;99.90;;;;;;4979392;28;20058;-83
2021/12/07 02:42:35;;;;;;;35.20;20.83;;;1.20;99.90;;;;;;4964159;28;20485;-83
2021/12/07 02:45:02;;;;;;;34.67;21.13;;;1.20;99.90;;;;;;4978847;28;20042;-83
2021/12/07 02:47:27;;;;;;;36.40;21.63;;;1.10;99.90;;;;;;4994914;28;20061;-84
2021/12/07 02:49:53;;;;;;;32.78;19.90;;;1.20;99.90;;;;;;4995139;28;20038;-84
2021/12/07 02:52:19;;;;;;;37.65;22.60;;;1.20;99.90;;;;;;4978760;28;20038;-84
2021/12/07 02:54:48;;;;;;;42.72;24.25;;;1.20;99.90;;;;;;4994618;28;20046;-84
2021/12/07 02:57:16;;;;;;;33.28;21.60;;;1.20;99.90;;;;;;4994108;28;20073;-84
2021/12/07 02:59:46;;;;;;;39.45;22.88;;;1.20;99.90;;;;;;4977685;28;20053;-84
2021/12/07 03:02:14;;;;;;;36.00;22.77;;;1.20;99.90;;;;;;4977806;28;20046;-84
2021/12/07 03:04:50;;;;;;;38.78;23.60;;;1.60;99.90;;;;;;4977631;28;20042;-84
2021/12/07 03:07:38;;;;;;;34.33;21.65;;;1.40;99.90;;;;;;4994774;28;20093;-84
2021/12/07 03:25:52;;;;;;;40.22;24.80;;;1.40;99.90;;;;;;4993652;28;20049;-84
2021/12/07 03:26:34;;;;;;;36.22;24.17;;;1.20;99.90;;;;;;4995878;28;20050;-83
2021/12/07 03:29:01;;;;;;;37.13;24.65;;;1.30;99.90;;;;;;4996531;28;20038;-83
2021/12/07 03:31:27;;;;;;;37.10;24.40;;;1.50;99.90;;;;;;4980082;28;20042;-83
2021/12/07 03:33:55;;;;;;;44.03;26.15;;;1.70;99.90;;;;;;4980540;28;20034;-83
2021/12/07 03:36:21;;;;;;;38.47;24.38;;;1.20;99.90;;;;;;4999194;28;20038;-83
2021/12/07 03:38:48;;;;;;;40.45;26.52;;;1.30;99.90;;;;;;4998504;28;20521;-83
2021/12/07 03:41:15;;;;;;;49.22;27.92;;;1.30;99.90;;;;;;4983270;28;20050;-83
2021/12/07 03:43:41;;;;;;;36.15;24.40;;;1.20;99.90;;;;;;5000866;28;20486;-83
2021/12/07 03:46:07;;;;;;;44.53;26.77;;;1.30;99.90;;;;;;5000697;28;20050;-83
2021/12/07 03:48:33;;;;;;;41.25;26.02;;;1.40;99.90;;;;;;5017414;28;20401;-83
2021/12/07 03:50:59;;;;;;;45.88;26.83;;;1.30;99.90;;;;;;5001903;28;20037;-83
2021/12/07 03:53:27;;;;;;;42.85;26.10;;;1.30;99.90;;;;;;5002585;28;20386;-83
2021/12/07 03:55:53;;;;;;;44.85;26.52;;;1.30;99.90;;;;;;5001750;28;20124;-83
2021/12/07 03:58:19;;;;;;;42.63;27.05;;;1.30;99.90;;;;;;5002073;28;20097;-83
2021/12/07 04:00:47;;;;;;;57.58;30.80;;;1.40;99.90;;;;;;5022034;28;20563;-83
2021/12/07 04:03:14;;;;;;;47.45;28.67;;;1.30;99.90;;;;;;5021769;28;20049;-83
2021/12/07 04:05:48;;;;;;;47.85;28.20;;;1.30;99.90;;;;;;5005278;28;20056;-83
2021/12/07 04:08:16;;;;;;;46.00;28.85;;;1.30;99.90;;;;;;5021606;28;20125;-83
2021/12/07 04:10:43;;;;;;;50.50;27.73;;;1.30;99.90;;;;;;5005964;28;20042;-83
2021/12/07 04:13:09;;;;;;;47.50;28.77;;;1.30;99.90;;;;;;5022276;28;20050;-83
2021/12/07 04:15:35;;;;;;;42.88;27.50;;;1.30;99.90;;;;;;5006374;28;20121;-83
2021/12/07 04:18:01;;;;;;;42.40;25.55;;;1.30;99.90;;;;;;5023107;28;20493;-83
2021/12/07 04:20:28;;;;;;;46.20;28.55;;;1.30;99.90;;;;;;5006331;28;20049;-83
2021/12/07 04:22:54;;;;;;;42.05;26.23;;;1.30;99.90;;;;;;5007879;28;20041;-83
2021/12/07 04:25:23;;;;;;;48.90;28.50;;;1.50;99.90;;;;;;5009285;28;20419;-83
2021/12/07 04:27:50;;;;;;;52.20;29.73;;;1.30;99.90;;;;;;5010291;28;20077;-84
2021/12/07 04:30:30;;;;;;;54.13;29.02;;;1.30;99.90;;;;;;5005479;28;20039;-83
2021/12/07 04:32:57;;;;;;;61.53;30.58;;;1.30;99.90;;;;;;4988970;28;20050;-83
2021/12/07 04:35:24;;;;;;;48.88;29.25;;;1.20;99.90;;;;;;5004852;28;20081;-83
2021/12/07 04:37:50;;;;;;;58.22;31.00;;;1.20;99.90;;;;;;5003461;28;20045;-83
2021/12/07 04:40:20;;;;;;;51.47;29.00;;;1.20;99.90;;;;;;4987285;28;20405;-83
2021/12/07 04:42:47;;;;;;;45.10;27.23;;;1.40;99.90;;;;;;4985992;28;20050;-83
2021/12/07 04:45:26;;;;;;;50.45;28.85;;;1.80;99.90;;;;;;4985975;28;20049;-83
2021/12/07 04:58:07;;;;;;;50.57;28.30;;;1.30;99.90;;;;;;4999899;28;20042;-82
2021/12/07 05:00:33;;;;;;;46.83;26.73;;;1.20;99.90;;;;;;4999435;28;20046;-82
2021/12/07 05:03:04;;;;;;;52.00;28.40;;;1.20;99.90;;;;;;4998849;28;20042;-82
2021/12/07 05:05:35;;;;;;;42.58;25.25;;;1.20;99.90;;;;;;4982709;28;20042;-82
2021/12/07 05:08:05;;;;;;;51.17;28.13;;;1.20;99.90;;;;;;4982068;28;20118;-82
2021/12/07 05:10:37;;;;;;;43.20;27.10;;;1.20;99.90;;;;;;4981892;28;20049;-82
2021/12/07 05:15:58;;;;;;;46.47;26.20;;;1.50;99.90;;;;;;4998716;28;20504;-82
2021/12/07 05:24:04;;;;;;;53.17;27.55;;;1.20;99.90;;;;;;4997840;28;20421;-82
2021/12/07 05:40:00;;;;;;;47.20;25.08;;;1.10;99.90;;;;;;4997339;28;20132;-81
2021/12/07 05:42:26;;;;;;;46.85;25.73;;;1.10;99.90;;;;;;4997842;28;20046;-81
2021/12/07 05:44:54;;;;;;;51.90;26.75;;;1.00;99.90;;;;;;4997560;28;20064;-81
2021/12/07 05:47:21;;;;;;;42.50;24.65;;;1.00;99.90;;;;;;4998701;28;20043;-81
2021/12/07 05:49:46;;;;;;;39.60;24.73;;;1.00;99.90;;;;;;4997425;28;20482;-81
2021/12/07 05:52:12;;;;;;;44.17;24.10;;;1.00;99.90;;;;;;4997908;28;20046;-81
2021/12/07 05:54:38;;;;;;;43.08;24.02;;;1.00;99.90;;;;;;4980901;28;20042;-81
2021/12/07 05:57:05;;;;;;;47.72;25.17;;;1.10;99.90;;;;;;4981473;28;20042;-81
2021/12/07 05:59:31;;;;;;;52.92;26.58;;;1.10;99.90;;;;;;4997269;28;20129;-81
2021/12/07 06:01:57;;;;;;;41.53;24.10;;;1.00;99.90;;;;;;4997684;28;20049;-81
2021/12/07 06:04:23;;;;;;;43.25;24.35;;;1.00;99.90;;;;;;4997193;28;20409;-81
2021/12/07 06:06:49;;;;;;;40.55;23.98;;;1.00;99.90;;;;;;4997771;28;20042;-81
2021/12/07 06:09:14;;;;;;;45.20;24.77;;;1.00;99.90;;;;;;4993772;28;20056;-82
2021/12/07 06:11:42;;;;;;;42.90;23.92;;;1.00;99.90;;;;;;4977627;28;20047;-82
2021/12/07 06:14:10;;;;;;;47.45;25.17;;;1.00;99.90;;;;;;4977601;28;20058;-82
2021/12/07 06:16:36;;;;;;;40.42;23.33;;;1.50;99.90;;;;;;4982586;28;20038;-81
2021/12/07 06:19:02;;;;;;;41.55;22.58;;;1.00;99.90;;;;;;4968743;28;20457;-81
2021/12/07 06:21:29;;;;;;;49.60;24.80;;;1.00;99.90;;;;;;4995523;28;20069;-83
2021/12/07 06:23:55;;;;;;;48.10;24.42;;;1.10;99.90;;;;;;4997458;28;20078;-83
2021/12/07 06:26:21;;;;;;;39.60;22.38;;;1.00;99.90;;;;;;4981918;28;20042;-83
2021/12/07 06:28:46;;;;;;;42.53;23.60;;;1.00;99.90;;;;;;4982607;28;20482;-83
2021/12/07 06:31:12;;;;;;;42.70;23.85;;;1.00;99.90;;;;;;4998229;28;20053;-83
2021/12/07 06:33:38;;;;;;;41.05;24.17;;;1.00;99.90;;;;;;4964993;28;20496;-84
2021/12/07 06:36:06;;;;;;;41.83;22.75;;;1.00;99.90;;;;;;4994805;28;20038;-84
2021/12/07 06:38:34;;;;;;;46.13;23.70;;;1.10;99.90;;;;;;4961737;28;20046;-84
2021/12/07 06:41:02;;;;;;;38.83;22.67;;;1.10;99.90;;;;;;4994837;28;20517;-84
2021/12/07 06:43:28;;;;;;;49.30;24.10;;;1.10;99.90;;;;;;4963362;28;20045;-84
2021/12/07 06:45:54;;;;;;;46.35;24.55;;;1.30;99.90;;;;;;4995455;28;20272;-84
2021/12/07 06:48:20;;;;;;;47.03;24.85;;;1.10;99.90;;;;;;4965286;28;20125;-84
2021/12/07 06:50:46;;;;;;;48.75;24.02;;;1.20;99.90;;;;;;4979282;28;20042;-84
2021/12/07 06:53:12;;;;;;;55.17;24.95;;;1.10;99.90;;;;;;4982530;28;20053;-84
2021/12/07 06:55:38;;;;;;;42.20;22.83;;;1.20;99.90;;;;;;4994849;28;20038;-84
2021/12/07 06:58:04;;;;;;;42.28;22.40;;;1.20;99.90;;;;;;4981372;28;20038;-83
2021/12/07 07:00:31;;;;;;;40.90;22.25;;;1.20;99.90;;;;;;4990267;28;20045;-82
2021/12/07 07:02:56;;;;;;;42.35;22.92;;;1.20;99.90;;;;;;4969652;28;20046;-82
2021/12/07 07:05:23;;;;;;;40.60;21.95;;;1.20;99.90;;;;;;4995447;28;20077;-83
2021/12/07 07:07:49;;;;;;;46.47;23.90;;;1.30;99.90;;;;;;4965304;28;20453;-82
2021/12/07 07:10:17;;;;;;;40.22;21.52;;;1.20;99.90;;;;;;4975186;28;20444;-83
2021/12/07 07:12:43;;;;;;;46.03;22.20;;;1.20;99.90;;;;;;4979994;28;20046;-84
2021/12/07 07:15:10;;;;;;;45.53;22.80;;;1.20;99.90;;;;;;4977871;28;20038;-84
2021/12/07 07:17:36;;;;;;;47.08;23.20;;;1.20;99.90;;;;;;4963305;28;20487;-83
2021/12/07 07:20:03;;;;;;;40.72;22.13;;;1.20;99.90;;;;;;4979428;28;20043;-83
2021/12/07 07:22:29;;;;;;;44.55;23.35;;;1.10;99.90;;;;;;4962819;28;20057;-83
2021/12/07 07:24:56;;;;;;;37.22;20.67;;;1.10;99.90;;;;;;4976670;28;20155;-82
2021/12/07 07:27:22;;;;;;;42.10;22.10;;;1.10;99.90;;;;;;4981782;28;20035;-83
2021/12/07 07:29:48;;;;;;;42.17;22.38;;;1.10;99.90;;;;;;4982886;28;20102;-83
2021/12/07 07:32:13;;;;;;;39.15;22.30;;;1.30;99.90;;;;;;4960888;28;20043;-83
2021/12/07 07:34:39;;;;;;;41.40;21.90;;;1.10;99.90;;;;;;4954463;28;20049;-82
2021/12/07 07:37:05;;;;;;;40.22;21.52;;;1.70;99.90;;;;;;4983097;28;20549;-82
2021/12/07 07:39:32;;;;;;;42.15;22.77;;;1.10;99.90;;;;;;4983426;28;20082;-82
2021/12/07 07:41:57;;;;;;;37.88;21.23;;;1.10;99.90;;;;;;4986632;28;20050;-82
2021/12/07 07:44:23;;;;;;;44.38;22.98;;;1.10;99.90;;;;;;4986134;28;20406;-83
2021/12/07 07:46:49;;;;;;;41.53;21.88;;;1.20;99.90;;;;;;4998514;28;20039;-83
2021/12/07 07:49:15;;;;;;;43.13;23.00;;;1.10;99.90;;;;;;4990452;28;20529;-82
2021/12/07 07:51:41;;;;;;;45.97;22.60;;;1.10;99.90;;;;;;4998468;28;20067;-83
2021/12/07 07:54:07;;;;;;;47.80;23.13;;;1.10;99.90;;;;;;4998802;28;20042;-82
2021/12/07 07:56:33;;;;;;;46.45;22.85;;;1.40;99.90;;;;;;4983865;28;20077;-82
2021/12/07 07:58:59;;;;;;;46.05;22.50;;;1.10;99.90;;;;;;4999378;28;20049;-82
2021/12/07 08:01:31;;;;;;;35.95;21.23;;;1.10;99.90;;;;;;4999248;28;20049;-82
2021/12/07 08:03:59;;;;;;;41.58;21.73;;;1.10;99.90;;;;;;4999138;28;20035;-82
2021/12/07 08:06:24;;;;;;;47.80;22.60;;;1.30;99.90;;;;;;4982639;28;20104;-82
2021/12/07 08:08:50;;;;;;;42.95;22.02;;;1.20;99.90;;;;;;4982750;28;20513;-82
2021/12/07 08:11:16;;;;;;;40.65;21.20;;;1.20;99.90;;;;;;4982962;28;20038;-82
2021/12/07 08:13:42;;;;;;;41.20;21.35;;;1.20;99.90;;;;;;4983608;28;20042;-82
2021/12/07 08:16:15;;;;;;;40.40;21.02;;;1.20;99.90;;;;;;4999364;28;20061;-82
2021/12/07 08:18:45;;;;;;;35.88;20.42;;;1.20;99.90;;;;;;4963698;28;20042;-81
2021/12/07 08:21:12;;;;;;;34.55;19.85;;;1.20;99.90;;;;;;4949418;28;20102;-81
2021/12/07 08:23:40;;;;;;;39.55;20.95;;;1.20;99.90;;;;;;4970583;28;20042;-81
2021/12/07 08:26:08;;;;;;;35.83;20.48;;;1.20;99.90;;;;;;4999214;28;20042;-81
2021/12/07 08:28:34;;;;;;;41.30;21.42;;;1.70;99.90;;;;;;4982613;28;20625;-81
2021/12/07 08:31:01;;;;;;;41.17;22.08;;;1.40;99.90;;;;;;4982563;28;20398;-81
2021/12/07 08:33:27;;;;;;;42.00;22.48;;;1.40;99.90;;;;;;4997863;28;20173;-81
2021/12/07 08:35:54;;;;;;;42.22;24.00;;;1.60;99.90;;;;;;4998135;28;20042;-80
2021/12/07 08:38:20;;;;;;;36.65;21.55;;;1.70;99.90;;;;;;4982083;28;20038;-81
2021/12/07 08:40:53;;;;;;;39.20;21.13;;;1.80;99.90;;;;;;4987372;28;20128;-81
2021/12/07 08:43:24;;;;;;;36.40;20.05;;;1.90;99.90;;;;;;4978682;28;20061;-80
2021/12/07 08:45:51;;;;;;;29.90;17.95;;;2.10;99.90;;;;;;4997537;28;20046;-80
2021/12/07 08:48:18;;;;;;;29.17;17.77;;;2.20;99.90;;;;;;4995734;28;20501;-81
2021/12/07 08:50:45;;;;;;;31.65;18.23;;;2.10;99.90;;;;;;4998003;28;20464;-81
2021/12/07 08:53:14;;;;;;;31.83;18.15;;;2.20;99.90;;;;;;4982176;28;20046;-81
2021/12/07 09:01:15;;;;;;;32.42;17.73;;;2.70;99.90;;;;;;4978332;28;20130;-80
2021/12/07 09:03:41;;;;;;;28.83;16.25;;;2.80;99.90;;;;;;4978934;28;20050;-79
2021/12/07 09:06:07;;;;;;;25.67;16.02;;;3.00;99.90;;;;;;4999054;28;20126;-79
2021/12/07 09:08:35;;;;;;;26.88;15.05;;;3.00;99.90;;;;;;4997667;28;20050;-79
2021/12/07 09:11:01;;;;;;;23.45;14.27;;;3.10;99.90;;;;;;4981199;28;20445;-79
2021/12/07 09:13:28;;;;;;;25.27;13.98;;;3.20;99.90;;;;;;4977917;28;20122;-79
2021/12/07 09:15:55;;;;;;;24.25;13.43;;;3.20;99.90;;;;;;4945910;28;20129;-79
2021/12/07 09:18:21;;;;;;;27.70;13.85;;;3.30;99.90;;;;;;4977382;28;20118;-79
2021/12/07 09:20:47;;;;;;;24.85;14.38;;;3.30;99.90;;;;;;4993614;28;20398;-79
2021/12/07 09:23:13;;;;;;;22.63;12.98;;;3.30;99.90;;;;;;4974745;28;20042;-79
2021/12/07 09:25:39;;;;;;;24.50;12.85;;;3.40;99.90;;;;;;4997084;28;20125;-79
2021/12/07 09:28:05;;;;;;;24.75;12.73;;;3.40;99.90;;;;;;4996845;28;20506;-79
2021/12/07 09:30:31;;;;;;;23.75;13.07;;;3.40;99.90;;;;;;4980116;28;20035;-79
2021/12/07 09:32:57;;;;;;;23.90;12.43;;;3.40;99.90;;;;;;4980692;28;20050;-79
2021/12/07 09:35:24;;;;;;;25.40;13.43;;;3.40;99.90;;;;;;4980661;28;20096;-80
2021/12/07 09:37:51;;;;;;;24.75;13.93;;;3.40;99.90;;;;;;4964448;28;20046;-80
2021/12/07 09:40:19;;;;;;;28.27;14.65;;;3.40;99.90;;;;;;4996997;28;20413;-81
2021/12/07 09:42:46;;;;;;;26.58;14.13;;;3.40;99.90;;;;;;4978120;28;20046;-81
2021/12/07 09:45:13;;;;;;;26.13;15.15;;;3.40;99.90;;;;;;4977083;28;20631;-80
2021/12/07 09:47:39;;;;;;;26.42;13.75;;;3.40;99.90;;;;;;4961449;28;20181;-81
2021/12/07 09:50:08;;;;;;;23.85;13.98;;;3.40;99.90;;;;;;4950849;28;20085;-80
2021/12/07 09:52:35;;;;;;;28.80;15.00;;;3.50;99.90;;;;;;4996444;28;20101;-80
2021/12/07 09:55:01;;;;;;;27.98;14.05;;;3.50;99.90;;;;;;4979722;28;20457;-80
2021/12/07 09:57:27;;;;;;;23.80;13.73;;;3.50;99.90;;;;;;4976415;28;20038;-81
2021/12/07 09:59:53;;;;;;;24.65;13.85;;;3.50;99.90;;;;;;4966090;28;20136;-80
2021/12/07 10:02:19;;;;;;;34.30;14.60;;;3.60;99.90;;;;;;4993884;28;20056;-81
2021/12/07 10:04:45;;;;;;;24.73;13.18;;;3.50;99.90;;;;;;4976084;28;20038;-82
2021/12/07 10:07:11;;;;;;;23.55;12.70;;;3.60;99.90;;;;;;4967447;28;20070;-81
2021/12/07 10:09:38;;;;;;;25.02;13.85;;;3.60;99.90;;;;;;4985595;28;20034;-81
2021/12/07 10:12:05;;;;;;;23.00;13.00;;;3.70;99.90;;;;;;4969537;28;20475;-81
2021/12/07 10:14:42;;;;;;;23.85;13.10;;;3.40;99.90;;;;;;4974195;28;20034;-82
2021/12/07 10:17:08;;;;;;;24.85;12.93;;;3.40;99.90;;;;;;4969278;28;21035;-82
2021/12/07 10:19:42;;;;;;;21.23;12.35;;;3.40;99.90;;;;;;4982456;28;20104;-82
2021/12/07 10:22:16;;;;;;;22.75;12.18;;;3.40;99.90;;;;;;4986040;28;20085;-82
2021/12/07 10:24:49;;;;;;;21.20;12.13;;;3.40;99.90;;;;;;4984064;28;20393;-82
2021/12/07 10:27:36;;;;;;;25.02;12.88;;;3.30;99.90;;;;;;4979623;28;20050;-82
2021/12/07 10:30:09;;;;;;;25.60;11.70;;;3.40;99.90;;;;;;4995642;28;20046;-82
2021/12/07 10:32:39;;;;;;;19.90;10.85;;;3.50;99.90;;;;;;4992991;28;20545;-82
2021/12/07 10:35:35;;;;;;;25.38;11.48;;;3.70;99.90;;;;;;4994430;28;20042;-81
2021/12/07 10:38:16;;;;;;;24.25;10.23;;;3.70;99.90;;;;;;4992019;28;20038;-81
2021/12/07 10:41:01;;;;;;;21.45;10.23;;;3.80;99.90;;;;;;4983728;28;20065;-82
2021/12/07 10:43:45;;;;;;;23.75;10.07;;;3.90;99.90;;;;;;4982016;28;20050;-81
2021/12/07 10:46:34;;;;;;;19.60;9.63;;;4.00;99.90;;;;;;4976992;28;20133;-81
2021/12/07 10:49:37;;;;;;;23.27;10.02;;;4.00;99.90;;;;;;4997522;28;20042;-81
2021/12/07 10:54:38;;;;;;;22.45;10.10;;;4.10;99.90;;;;;;5071804;23;20053;-81
2021/12/07 10:57:06;;;;;;;17.67;8.35;;;4.20;99.90;;;;;;5004979;28;20069;-81
2021/12/07 10:59:32;;;;;;;18.40;9.60;;;4.20;99.90;;;;;;4991741;28;20030;-81
2021/12/07 11:01:59;;;;;;;21.60;9.40;;;4.20;99.90;;;;;;4992494;28;20042;-81
2021/12/07 11:04:36;;;;;;;21.20;9.77;;;4.20;99.90;;;;;;4978200;28;20041;-81
2021/12/07 11:07:16;;;;;;;19.75;10.60;;;4.30;99.90;;;;;;4995694;28;20045;-81
2021/12/07 11:10:15;;;;;;;23.02;10.35;;;4.30;99.90;;;;;;4997003;28;20042;-81
2021/12/07 11:12:50;;;;;;;23.08;10.50;;;4.30;99.90;;;;;;5015713;28;20042;-81
2021/12/07 11:15:24;;;;;;;22.55;9.52;;;4.40;99.90;;;;;;5016270;28;20052;-81
2021/12/07 11:18:10;;;;;;;20.50;9.73;;;4.40;99.90;;;;;;4999378;28;20038;-81
2021/12/07 11:20:38;;;;;;;21.58;9.95;;;4.40;99.90;;;;;;5009771;28;20046;-81
2021/12/07 11:23:16;;;;;;;21.33;9.77;;;4.50;99.90;;;;;;4992632;28;20045;-81
2021/12/07 11:31:33;;;;;;;24.15;10.30;;;4.50;99.90;;;;;;5012877;28;20034;-82
2021/12/07 11:34:10;;;;;;;19.80;9.82;;;4.50;99.90;;;;;;4995842;28;20042;-82
2021/12/07 11:36:47;;;;;;;22.95;10.45;;;4.60;99.90;;;;;;5012149;28;20041;-82
2021/12/07 11:39:22;;;;;;;19.42;10.02;;;4.80;99.90;;;;;;4979363;28;20045;-82
2021/12/07 11:41:51;;;;;;;20.25;9.43;;;4.60;99.90;;;;;;4997761;28;20045;-82
2021/12/07 11:44:19;;;;;;;21.65;9.90;;;4.70;99.90;;;;;;4968909;28;20062;-82
2021/12/07 11:46:49;;;;;;;23.83;9.90;;;4.70;99.90;;;;;;4985308;28;20042;-82
2021/12/07 11:49:19;;;;;;;21.75;10.35;;;4.70;99.90;;;;;;4997178;28;20050;-82
2021/12/07 11:51:47;;;;;;;21.38;9.95;;;4.80;99.90;;;;;;4981733;28;20046;-82
2021/12/07 11:54:15;;;;;;;21.50;10.07;;;4.80;99.90;;;;;;5013270;28;20045;-82
2021/12/07 11:56:43;;;;;;;22.92;10.15;;;4.80;99.90;;;;;;4891838;28;20136;-82
2021/12/07 11:59:09;;;;;;;23.50;11.20;;;4.80;99.90;;;;;;4988746;28;20049;-82
2021/12/07 12:01:38;;;;;;;21.42;10.43;;;4.90;99.90;;;;;;4993807;28;20100;-81
2021/12/07 12:04:04;;;;;;;19.10;11.18;;;4.90;99.90;;;;;;4991138;28;20045;-82
2021/12/07 12:06:31;;;;;;;23.58;10.75;;;4.80;99.90;;;;;;4994577;28;20038;-82
2021/12/07 12:08:58;;;;;;;24.33;11.50;;;4.80;99.90;;;;;;5009511;28;20057;-82
2021/12/07 12:11:50;;;;;;;21.45;10.45;;;4.80;99.90;;;;;;5011262;28;20038;-81
2021/12/07 12:14:46;;;;;;;23.85;10.95;;;5.10;99.90;;;;;;4984005;28;20052;-82
2021/12/07 12:17:30;;;;;;;25.00;10.15;;;4.70;99.90;;;;;;4997664;28;20592;-82
2021/12/07 12:20:22;;;;;;;25.42;11.63;;;4.70;99.90;;;;;;4994680;28;20046;-81
2021/12/07 12:23:02;;;;;;;24.10;10.67;;;4.80;99.90;;;;;;4986399;28;20200;-81
2021/12/07 12:25:28;;;;;;;24.45;11.32;;;4.80;99.90;;;;;;5009540;28;21729;-81
2021/12/07 12:27:58;;;;;;;23.00;11.18;;;4.80;99.90;;;;;;4980665;28;20079;-81
2021/12/07 12:30:34;;;;;;;25.45;11.88;;;4.90;99.90;;;;;;4995169;28;20041;-81
2021/12/07 12:33:02;;;;;;;28.02;12.32;;;4.80;99.90;;;;;;4996798;28;20042;-81
2021/12/07 12:35:40;;;;;;;23.35;11.32;;;4.90;99.90;;;;;;5012368;28;20049;-81
2021/12/07 12:38:22;;;;;;;20.63;10.68;;;4.90;99.90;;;;;;4980372;28;20452;-81
2021/12/07 12:41:01;;;;;;;22.35;10.85;;;5.00;99.90;;;;;;4995462;28;20065;-81
2021/12/07 12:43:45;;;;;;;24.48;11.63;;;5.00;99.90;;;;;;4996413;28;20045;-81
2021/12/07 12:46:20;;;;;;;18.85;11.05;;;5.00;99.90;;;;;;4977468;28;20128;-81
2021/12/07 12:48:49;;;;;;;23.13;11.50;;;5.00;99.90;;;;;;4994168;28;20045;-81
2021/12/07 12:51:17;;;;;;;25.27;11.13;;;5.00;99.90;;;;;;4985871;28;20046;-81
2021/12/07 12:53:44;;;;;;;23.15;10.93;;;5.00;99.90;;;;;;4992946;28;20500;-81
2021/12/07 12:56:18;;;;;;;19.70;10.52;;;5.00;99.90;;;;;;4971323;28;20050;-81
2021/12/07 12:58:47;;;;;;;20.95;10.73;;;5.00;99.90;;;;;;4993961;28;20035;-81
2021/12/07 13:01:22;;;;;;;21.23;11.10;;;5.00;99.90;;;;;;4962434;28;20046;-81
2021/12/07 13:03:55;;;;;;;20.65;10.60;;;5.00;99.90;;;;;;4981691;28;20121;-81
2021/12/07 13:06:24;;;;;;;22.23;10.43;;;5.00;99.90;;;;;;4982227;28;20051;-81
2021/12/07 13:09:05;;;;;;;21.73;10.90;;;5.00;99.90;;;;;;5000984;28;20054;-81
2021/12/07 13:11:57;;;;;;;21.52;10.57;;;4.90;99.90;;;;;;4987696;28;20125;-81
2021/12/07 13:14:23;;;;;;;24.85;11.20;;;4.90;99.90;;;;;;4980547;28;20034;-81
2021/12/07 13:16:51;;;;;;;20.42;10.43;;;5.00;99.90;;;;;;4992414;28;20521;-81
2021/12/07 13:19:18;;;;;;;23.58;10.57;;;4.90;99.90;;;;;;4969001;28;20512;-81
2021/12/07 13:21:45;;;;;;;24.27;10.65;;;5.00;99.90;;;;;;4980138;28;20057;-81
2021/12/07 13:24:16;;;;;;;23.85;10.18;;;5.00;99.90;;;;;;4995918;28;20121;-81
2021/12/07 13:26:45;;;;;;;22.55;10.27;;;5.00;99.90;;;;;;4987787;28;20464;-81
2021/12/07 13:29:14;;;;;;;24.00;9.43;;;5.00;99.90;;;;;;4996185;28;20054;-81
2021/12/07 13:31:46;;;;;;;22.98;10.82;;;5.00;99.90;;;;;;4977469;28;20053;-81
2021/12/07 13:34:14;;;;;;;23.13;10.65;;;5.00;99.90;;;;;;4978383;28;20038;-81
2021/12/07 13:36:56;;;;;;;25.15;10.85;;;5.00;99.90;;;;;;4977803;28;20045;-81
2021/12/07 13:39:23;;;;;;;;;;;5.00;99.90;;;;;;4998923;28;20405;-81
2021/12/07 13:42:11;;;;;;;24.67;10.38;;;5.00;99.90;;;;;;4998684;28;19924;-81
2021/12/07 13:45:10;;;;;;;22.17;9.90;;;5.00;99.90;;;;;;4979311;28;20096;-81
2021/12/07 13:47:41;;;;;;;22.08;10.70;;;4.90;99.90;;;;;;4947592;28;20046;-81
2021/12/07 13:50:14;;;;;;;21.47;10.47;;;4.90;99.90;;;;;;4961860;28;20122;-81
2021/12/07 13:52:43;;;;;;;21.00;10.45;;;4.90;99.90;;;;;;4979833;28;20034;-81
2021/12/07 13:55:18;;;;;;;23.10;9.65;;;4.90;99.90;;;;;;4995331;28;20130;-81
2021/12/07 13:57:47;;;;;;;23.55;10.63;;;4.90;99.90;;;;;;4984669;28;20037;-81
2021/12/07 14:00:23;;;;;;;21.15;10.23;;;4.90;99.90;;;;;;4964698;28;20056;-81
2021/12/07 14:02:56;;;;;;;22.33;10.13;;;4.90;99.90;;;;;;4959339;28;20043;-81
2021/12/07 14:05:26;;;;;;;24.05;10.30;;;5.00;99.90;;;;;;4976451;28;20039;-81
2021/12/07 14:07:53;;;;;;;26.08;11.85;;;5.00;99.90;;;;;;4994468;28;20412;-81
2021/12/07 14:10:25;;;;;;;24.27;11.35;;;5.00;99.90;;;;;;4975533;28;20086;-82
2021/12/07 14:12:53;;;;;;;;;;;4.90;99.90;;;;;;4976620;28;20047;-81
2021/12/07 14:15:22;;;;;;;23.25;11.10;;;4.80;99.90;;;;;;4977081;28;19918;-82
2021/12/07 14:17:52;;;;;;;22.20;11.60;;;4.90;99.90;;;;;;4978433;28;20030;-82
2021/12/07 14:20:36;;;;;;;19.83;11.32;;;4.90;99.90;;;;;;4976548;28;20104;-82
2021/12/07 14:23:26;;;;;;;22.98;11.52;;;4.90;99.90;;;;;;4976569;28;20417;-82
2021/12/07 14:25:52;;;;;;;24.20;11.73;;;4.90;99.90;;;;;;4962994;28;20145;-82
2021/12/07 14:28:38;;;;;;;21.58;11.57;;;4.80;99.90;;;;;;4956976;28;20137;-82